Broadus, MT (59317)

12:39 AM MDT on July 27, 2016 (GMT -0600)
Cinch Buckle | | Change Station

Elev 3114 ft 45.49 °N, 104.98 °W | Updated 27 seconds ago

Clear
Clear
67.3 °F
Feels Like 67.3 °F
N
4.5
Wind Variable Wind from NE
Gusts 4.9 mph

Today
High -- | Low -- °F
--% Chance of Precip.
Yesterday
High -- | Low -- °F
Precip. -- in
Pressure 30.16 in
Visibility 10.0 miles
Clouds Clear
Dew Point 61 °F
Humidity 80%
Rainfall 0.00 in
Snow Depth Not available.
5:40 AM 8:34 PM
Waning Gibbous, 46% visible
METAR KW43 270635Z AUTO 10010G17KT 10SM CLR 19/15 A3016 RMK AO2
Pressure 30.16 in
Visibility 10.0 miles
Clouds Clear
Dew Point 61 °F
Humidity 80%
Rainfall 0.00 in
Snow Depth Not available.
5:40 AM 8:34 PM
Waning Gibbous, 46% visible
METAR KW43 270635Z AUTO 10010G17KT 10SM CLR 19/15 A3016 RMK AO2

10-Day Weather Forecast

Almanac

Astronomy

Jul. 27, 2016 Rise Set
Actual Time
Civil Twilight
Nautical Twilight
Astronomical Twilight
Moon
Length of Visible Light
Length of Day
Tomorrow will be .
, % of the Moon is Illuminated

Today's Extremes

State Highs State Lows

Community

WunderPhotos

Upload Photos

1,927,818 photos uploaded!

WunderBlog® & News

Nearby

Air Quality

  Air Quality AQ Index Pollutant
Not available.

Snow Depth

Station Depth Elevation

Earthquake Activity

City Distance Mag. Time & Date
Minimum magnitude displayed is 2.5.

Coastal Water Temperatures

Place Temperature

Stations

Nearby Weather Stations

Station Location Temp. Windchill Dew Point Humidity Wind Precip. Elev Updated Type
                   

Watches & Warnings

There are currently no watches in effect.